Enter the Airport ICAO Code

Search by Airport or City

Current Weather

LEVX | Vigo–Peinador Airport

Vigo, Galicia, Spain

Last Update 34 Minutes Ago

Clear Sky

Temperature of 10 ºC

Light Winds from Variable Directions

Temperature

10 ºC

Dew Point Temperature

03 ºC

Relative Humidity

61.83 %

Wind Direction

Variable

Wind Velocity

6 km/h (03 kt)

Gusts

None

Visibility

No Significant Reductions

Sea Level Pressure

1022 hPa (Hectopascals)

Layers of Clouds

None

METAR LEVX 091030Z VRB03KT CAVOK 10/03 Q1022 NOSIG

Weather Forecast

LEVX | Vigo–Peinador Airport

Vigo, Galicia, Spain

Forecast valid for the next 19 Hours

From now on it is expected:

Clear Sky

Light Winds from Variable Directions

From now on it is expected 3 hours with intermittent periods of:

Moderate Winds from North

In 3 hours it is expected the begining of 5 hours with intermittent periods of:

Moderate Winds from West

Maximum Temperature

13 ºC in 3 Hours

Minimum Temperature

01 ºC in 19 Hours

TAF LEVX 090500Z 0906/1006 VRB04KT CAVOK TX13/0914Z TN01/1006Z TEMPO 0906/0914 36010KT TEMPO 0914/0919 28010KT